sensor_id;sensor_type;location;lat;lon;timestamp;pressure;altitude;pressure_sealevel;temperature;humidity
7760;BME280;3924;48.830;9.262;2023-05-23T00:01:05;98368.19;;;18.66;71.09
7760;BME280;3924;48.830;9.262;2023-05-23T00:03:33;98375.91;;;18.60;71.38
7760;BME280;3924;48.830;9.262;2023-05-23T00:06:00;98369.16;;;18.57;71.52
7760;BME280;3924;48.830;9.262;2023-05-23T00:08:27;98365.97;;;18.55;71.75
7760;BME280;3924;48.830;9.262;2023-05-23T00:10:54;98369.06;;;18.54;72.07
7760;BME280;3924;48.830;9.262;2023-05-23T00:13:20;98377.19;;;18.50;72.12
7760;BME280;3924;48.830;9.262;2023-05-23T00:15:47;98376.63;;;18.45;72.66
7760;BME280;3924;48.830;9.262;2023-05-23T00:18:14;98379.66;;;18.40;72.62
7760;BME280;3924;48.830;9.262;2023-05-23T00:20:42;98375.63;;;18.37;72.78
7760;BME280;3924;48.830;9.262;2023-05-23T00:23:09;98380.69;;;18.35;73.06
7760;BME280;3924;48.830;9.262;2023-05-23T00:25:36;98377.03;;;18.31;73.29
7760;BME280;3924;48.830;9.262;2023-05-23T00:28:03;98376.56;;;18.29;73.41
7760;BME280;3924;48.830;9.262;2023-05-23T00:30:32;98373.75;;;18.25;73.46
7760;BME280;3924;48.830;9.262;2023-05-23T00:32:59;98375.56;;;18.21;73.72
7760;BME280;3924;48.830;9.262;2023-05-23T00:35:26;98375.00;;;18.16;73.95
7760;BME280;3924;48.830;9.262;2023-05-23T00:37:53;98381.28;;;18.16;74.37
7760;BME280;3924;48.830;9.262;2023-05-23T00:40:21;98384.47;;;18.18;74.49
7760;BME280;3924;48.830;9.262;2023-05-23T00:42:48;98385.31;;;18.19;74.28
7760;BME280;3924;48.830;9.262;2023-05-23T00:45:17;98382.88;;;18.17;74.57
7760;BME280;3924;48.830;9.262;2023-05-23T00:47:44;98390.31;;;18.17;74.87
7760;BME280;3924;48.830;9.262;2023-05-23T00:50:12;98387.69;;;18.20;74.69
7760;BME280;3924;48.830;9.262;2023-05-23T00:52:41;98397.97;;;18.23;74.85
7760;BME280;3924;48.830;9.262;2023-05-23T00:55:08;98392.47;;;18.23;74.97
7760;BME280;3924;48.830;9.262;2023-05-23T00:57:36;98397.63;;;18.25;75.29
7760;BME280;3924;48.830;9.262;2023-05-23T01:00:12;98400.72;;;18.23;75.47
7760;BME280;3924;48.830;9.262;2023-05-23T01:02:42;98392.72;;;18.18;75.48
7760;BME280;3924;48.830;9.262;2023-05-23T01:05:11;98401.66;;;18.15;75.62
7760;BME280;3924;48.830;9.262;2023-05-23T01:07:40;98396.03;;;18.12;75.85
7760;BME280;3924;48.830;9.262;2023-05-23T01:10:07;98400.28;;;18.09;75.86
7760;BME280;3924;48.830;9.262;2023-05-23T01:12:46;98407.72;;;18.09;76.08
7760;BME280;3924;48.830;9.262;2023-05-23T01:15:17;98410.38;;;18.05;76.18
7760;BME280;3924;48.830;9.262;2023-05-23T01:18:18;98410.59;;;18.00;76.22
7760;BME280;3924;48.830;9.262;2023-05-23T01:20:53;98401.56;;;17.99;76.55
7760;BME280;3924;48.830;9.262;2023-05-23T01:26:06;98405.13;;;18.00;76.70
7760;BME280;3924;48.830;9.262;2023-05-23T01:28:46;98403.41;;;17.95;76.89
7760;BME280;3924;48.830;9.262;2023-05-23T01:31:15;98407.88;;;17.88;77.17
7760;BME280;3924;48.830;9.262;2023-05-23T01:33:42;98397.59;;;17.85;77.26
7760;BME280;3924;48.830;9.262;2023-05-23T01:36:12;98403.31;;;17.80;77.47
7760;BME280;3924;48.830;9.262;2023-05-23T01:38:39;98406.72;;;17.76;77.55
7760;BME280;3924;48.830;9.262;2023-05-23T01:41:05;98398.16;;;17.78;77.71
7760;BME280;3924;48.830;9.262;2023-05-23T01:43:32;98399.78;;;17.79;77.60
7760;BME280;3924;48.830;9.262;2023-05-23T01:45:59;98400.56;;;17.80;77.75
7760;BME280;3924;48.830;9.262;2023-05-23T01:48:28;98402.50;;;17.79;77.84
7760;BME280;3924;48.830;9.262;2023-05-23T01:50:54;98409.25;;;17.82;77.95
7760;BME280;3924;48.830;9.262;2023-05-23T01:53:23;98402.16;;;17.81;77.96
7760;BME280;3924;48.830;9.262;2023-05-23T01:55:51;98406.06;;;17.80;78.25
7760;BME280;3924;48.830;9.262;2023-05-23T01:58:18;98407.66;;;17.81;78.25
7760;BME280;3924;48.830;9.262;2023-05-23T02:00:45;98410.38;;;17.81;78.08
7760;BME280;3924;48.830;9.262;2023-05-23T02:03:11;98406.16;;;17.83;78.49
7760;BME280;3924;48.830;9.262;2023-05-23T02:05:38;98412.44;;;17.84;78.39
7760;BME280;3924;48.830;9.262;2023-05-23T02:08:05;98411.31;;;17.85;78.61
7760;BME280;3924;48.830;9.262;2023-05-23T02:10:32;98404.69;;;17.86;78.33
7760;BME280;3924;48.830;9.262;2023-05-23T02:12:58;98409.00;;;17.87;78.40
7760;BME280;3924;48.830;9.262;2023-05-23T02:15:25;98410.16;;;17.86;78.76
7760;BME280;3924;48.830;9.262;2023-05-23T02:17:51;98406.28;;;17.87;78.67
7760;BME280;3924;48.830;9.262;2023-05-23T02:20:18;98402.38;;;17.88;78.65
7760;BME280;3924;48.830;9.262;2023-05-23T02:22:45;98410.25;;;17.89;78.83
7760;BME280;3924;48.830;9.262;2023-05-23T02:25:11;98411.84;;;17.90;78.82
7760;BME280;3924;48.830;9.262;2023-05-23T02:27:38;98416.31;;;17.95;78.93
7760;BME280;3924;48.830;9.262;2023-05-23T02:30:05;98411.28;;;17.97;79.01
7760;BME280;3924;48.830;9.262;2023-05-23T02:32:31;98418.34;;;17.98;78.96
7760;BME280;3924;48.830;9.262;2023-05-23T02:34:58;98414.50;;;17.99;79.13
7760;BME280;3924;48.830;9.262;2023-05-23T02:37:24;98416.97;;;18.04;78.98
7760;BME280;3924;48.830;9.262;2023-05-23T02:39:51;98419.50;;;18.09;79.26
7760;BME280;3924;48.830;9.262;2023-05-23T02:42:17;98416.88;;;18.13;79.05
7760;BME280;3924;48.830;9.262;2023-05-23T02:44:44;98424.31;;;18.12;78.98
7760;BME280;3924;48.830;9.262;2023-05-23T02:47:11;98419.94;;;18.11;79.09
7760;BME280;3924;48.830;9.262;2023-05-23T02:49:37;98433.66;;;18.11;78.96
7760;BME280;3924;48.830;9.262;2023-05-23T02:52:04;98436.75;;;18.10;79.23
7760;BME280;3924;48.830;9.262;2023-05-23T02:54:31;98435.06;;;18.05;79.02
7760;BME280;3924;48.830;9.262;2023-05-23T02:56:57;98438.72;;;17.97;79.40
7760;BME280;3924;48.830;9.262;2023-05-23T02:59:24;98440.22;;;17.94;79.44
7760;BME280;3924;48.830;9.262;2023-05-23T03:01:52;98429.09;;;17.91;79.49
7760;BME280;3924;48.830;9.262;2023-05-23T03:04:19;98439.28;;;17.90;79.73
7760;BME280;3924;48.830;9.262;2023-05-23T03:06:47;98443.97;;;17.90;79.50
7760;BME280;3924;48.830;9.262;2023-05-23T03:09:14;98438.03;;;17.88;79.66
7760;BME280;3924;48.830;9.262;2023-05-23T03:11:42;98442.81;;;17.91;79.64
7760;BME280;3924;48.830;9.262;2023-05-23T03:14:09;98445.47;;;17.87;79.79
7760;BME280;3924;48.830;9.262;2023-05-23T03:16:35;98447.88;;;17.89;79.92
7760;BME280;3924;48.830;9.262;2023-05-23T03:19:02;98449.94;;;17.92;79.72
7760;BME280;3924;48.830;9.262;2023-05-23T03:21:31;98444.44;;;17.92;79.93
7760;BME280;3924;48.830;9.262;2023-05-23T03:23:58;98450.38;;;17.94;80.10
7760;BME280;3924;48.830;9.262;2023-05-23T03:26:24;98448.09;;;17.96;79.99
7760;BME280;3924;48.830;9.262;2023-05-23T03:28:55;98450.25;;;17.90;79.95
7760;BME280;3924;48.830;9.262;2023-05-23T03:31:23;98441.00;;;17.83;79.94
7760;BME280;3924;48.830;9.262;2023-05-23T03:33:49;98452.44;;;17.85;80.04
7760;BME280;3924;48.830;9.262;2023-05-23T03:36:16;98449.72;;;17.85;80.17
7760;BME280;3924;48.830;9.262;2023-05-23T03:38:42;98450.38;;;17.82;80.14
7760;BME280;3924;48.830;9.262;2023-05-23T03:41:09;98452.66;;;17.80;80.51
7760;BME280;3924;48.830;9.262;2023-05-23T03:43:36;98444.44;;;17.80;80.39
7760;BME280;3924;48.830;9.262;2023-05-23T03:46:03;98448.78;;;17.81;80.38
7760;BME280;3924;48.830;9.262;2023-05-23T03:48:30;98457.72;;;17.77;80.44
7760;BME280;3924;48.830;9.262;2023-05-23T03:50:56;98449.00;;;17.75;80.51
7760;BME280;3924;48.830;9.262;2023-05-23T03:53:23;98446.25;;;17.75;80.46
7760;BME280;3924;48.830;9.262;2023-05-23T03:55:50;98445.13;;;17.76;80.62
7760;BME280;3924;48.830;9.262;2023-05-23T03:58:19;98442.94;;;17.82;80.59
7760;BME280;3924;48.830;9.262;2023-05-23T04:00:46;98448.44;;;17.82;80.61
7760;BME280;3924;48.830;9.262;2023-05-23T04:03:13;98449.22;;;17.83;80.71
7760;BME280;3924;48.830;9.262;2023-05-23T04:05:41;98454.63;;;17.79;80.53
7760;BME280;3924;48.830;9.262;2023-05-23T04:08:08;98456.56;;;17.79;80.74
7760;BME280;3924;48.830;9.262;2023-05-23T04:10:35;98452.88;;;17.74;80.61
7760;BME280;3924;48.830;9.262;2023-05-23T04:13:01;98462.63;;;17.72;80.88
7760;BME280;3924;48.830;9.262;2023-05-23T04:15:30;98463.41;;;17.72;80.72
7760;BME280;3924;48.830;9.262;2023-05-23T04:17:59;98459.25;;;17.66;80.92
7760;BME280;3924;48.830;9.262;2023-05-23T04:20:26;98465.88;;;17.65;80.96
7760;BME280;3924;48.830;9.262;2023-05-23T04:22:53;98462.66;;;17.63;81.05
7760;BME280;3924;48.830;9.262;2023-05-23T04:25:20;98462.22;;;17.61;81.14
7760;BME280;3924;48.830;9.262;2023-05-23T04:27:46;98466.44;;;17.59;81.11
7760;BME280;3924;48.830;9.262;2023-05-23T04:30:15;98464.84;;;17.58;81.11
7760;BME280;3924;48.830;9.262;2023-05-23T04:32:43;98471.13;;;17.58;81.09
7760;BME280;3924;48.830;9.262;2023-05-23T04:35:10;98461.75;;;17.59;81.13
7760;BME280;3924;48.830;9.262;2023-05-23T04:37:39;98462.66;;;17.63;81.14
7760;BME280;3924;48.830;9.262;2023-05-23T04:40:09;98469.09;;;17.67;81.01
7760;BME280;3924;48.830;9.262;2023-05-23T04:42:36;98472.16;;;17.66;81.17
7760;BME280;3924;48.830;9.262;2023-05-23T04:45:02;98474.38;;;17.72;81.13
7760;BME280;3924;48.830;9.262;2023-05-23T04:47:29;98476.44;;;17.75;81.16
7760;BME280;3924;48.830;9.262;2023-05-23T04:50:02;98485.44;;;17.76;81.24
7760;BME280;3924;48.830;9.262;2023-05-23T04:52:29;98477.34;;;17.80;81.07
7760;BME280;3924;48.830;9.262;2023-05-23T04:54:59;98484.88;;;17.83;81.10
7760;BME280;3924;48.830;9.262;2023-05-23T04:57:27;98484.53;;;17.84;81.26
7760;BME280;3924;48.830;9.262;2023-05-23T04:59:54;98483.88;;;17.87;81.09
7760;BME280;3924;48.830;9.262;2023-05-23T05:02:20;98487.41;;;17.88;81.14
7760;BME280;3924;48.830;9.262;2023-05-23T05:04:47;98493.81;;;17.92;80.88
7760;BME280;3924;48.830;9.262;2023-05-23T05:07:14;98493.47;;;17.93;81.08
7760;BME280;3924;48.830;9.262;2023-05-23T05:09:41;98501.34;;;17.95;81.19
7760;BME280;3924;48.830;9.262;2023-05-23T05:12:08;98491.97;;;17.96;81.09
7760;BME280;3924;48.830;9.262;2023-05-23T05:14:34;98496.91;;;18.02;81.00
7760;BME280;3924;48.830;9.262;2023-05-23T05:17:01;98498.63;;;18.07;81.16
7760;BME280;3924;48.830;9.262;2023-05-23T05:19:28;98498.03;;;18.14;81.10
7760;BME280;3924;48.830;9.262;2023-05-23T05:21:55;98494.81;;;18.12;80.64
7760;BME280;3924;48.830;9.262;2023-05-23T05:24:24;98496.66;;;18.08;80.80
7760;BME280;3924;48.830;9.262;2023-05-23T05:26:51;98510.25;;;18.04;80.92
7760;BME280;3924;48.830;9.262;2023-05-23T05:29:17;98506.28;;;18.01;80.89
7760;BME280;3924;48.830;9.262;2023-05-23T05:31:44;98511.19;;;18.08;81.05
7760;BME280;3924;48.830;9.262;2023-05-23T05:34:11;98510.50;;;18.11;81.00
7760;BME280;3924;48.830;9.262;2023-05-23T05:36:38;98507.28;;;18.09;80.93
7760;BME280;3924;48.830;9.262;2023-05-23T05:39:12;98506.63;;;18.12;81.06
7760;BME280;3924;48.830;9.262;2023-05-23T05:41:39;98505.94;;;18.15;80.95
7760;BME280;3924;48.830;9.262;2023-05-23T05:44:07;98507.53;;;18.16;81.00
7760;BME280;3924;48.830;9.262;2023-05-23T05:46:34;98502.72;;;18.13;80.86
7760;BME280;3924;48.830;9.262;2023-05-23T05:49:04;98506.16;;;18.10;80.82
7760;BME280;3924;48.830;9.262;2023-05-23T05:51:30;98507.75;;;18.11;80.80
7760;BME280;3924;48.830;9.262;2023-05-23T05:53:57;98508.44;;;18.20;80.98
7760;BME280;3924;48.830;9.262;2023-05-23T05:56:23;98505.47;;;18.25;80.85
7760;BME280;3924;48.830;9.262;2023-05-23T05:58:50;98510.25;;;18.28;80.62
7760;BME280;3924;48.830;9.262;2023-05-23T06:01:16;98510.25;;;18.28;80.91
7760;BME280;3924;48.830;9.262;2023-05-23T06:03:43;98518.06;;;18.26;80.81
7760;BME280;3924;48.830;9.262;2023-05-23T06:06:10;98513.72;;;18.13;80.85
7760;BME280;3924;48.830;9.262;2023-05-23T06:08:37;98517.34;;;18.17;80.91
7760;BME280;3924;48.830;9.262;2023-05-23T06:11:04;98511.75;;;18.14;81.07
7760;BME280;3924;48.830;9.262;2023-05-23T06:13:31;98523.63;;;18.18;81.02
7760;BME280;3924;48.830;9.262;2023-05-23T06:15:57;98518.50;;;18.16;80.97
7760;BME280;3924;48.830;9.262;2023-05-23T06:18:24;98520.56;;;18.19;80.89
7760;BME280;3924;48.830;9.262;2023-05-23T06:20:51;98521.81;;;18.22;80.90
7760;BME280;3924;48.830;9.262;2023-05-23T06:23:18;98518.16;;;18.30;80.91
7760;BME280;3924;48.830;9.262;2023-05-23T06:25:45;98526.03;;;18.31;80.61
7760;BME280;3924;48.830;9.262;2023-05-23T06:28:11;98530.84;;;18.35;80.60
7760;BME280;3924;48.830;9.262;2023-05-23T06:30:39;98521.59;;;18.39;80.56
7760;BME280;3924;48.830;9.262;2023-05-23T06:33:08;98530.63;;;18.40;80.34
7760;BME280;3924;48.830;9.262;2023-05-23T06:35:35;98535.75;;;18.41;80.67
7760;BME280;3924;48.830;9.262;2023-05-23T06:38:01;98535.84;;;18.45;80.46
7760;BME280;3924;48.830;9.262;2023-05-23T06:40:29;98542.94;;;18.46;80.37
7760;BME280;3924;48.830;9.262;2023-05-23T06:42:56;98540.56;;;18.44;80.37
7760;BME280;3924;48.830;9.262;2023-05-23T06:45:22;98537.34;;;18.42;80.24
7760;BME280;3924;48.830;9.262;2023-05-23T06:47:49;98541.13;;;18.38;80.40
7760;BME280;3924;48.830;9.262;2023-05-23T06:50:17;98545.38;;;18.35;80.58
7760;BME280;3924;48.830;9.262;2023-05-23T06:52:48;98553.47;;;18.31;80.61
7760;BME280;3924;48.830;9.262;2023-05-23T06:55:15;98557.16;;;18.23;80.66
7760;BME280;3924;48.830;9.262;2023-05-23T06:57:45;98554.75;;;18.22;80.85
7760;BME280;3924;48.830;9.262;2023-05-23T07:00:15;98557.03;;;18.20;80.66
7760;BME280;3924;48.830;9.262;2023-05-23T07:02:43;98567.66;;;18.21;80.63
7760;BME280;3924;48.830;9.262;2023-05-23T07:05:14;98564.47;;;18.19;80.84
7760;BME280;3924;48.830;9.262;2023-05-23T07:07:42;98560.56;;;18.08;80.85
7760;BME280;3924;48.830;9.262;2023-05-23T07:10:09;98568.13;;;17.99;80.81
7760;BME280;3924;48.830;9.262;2023-05-23T07:12:35;98570.63;;;18.04;81.12
7760;BME280;3924;48.830;9.262;2023-05-23T07:15:03;98574.50;;;18.03;81.18
7760;BME280;3924;48.830;9.262;2023-05-23T07:17:31;98574.41;;;17.99;81.00
7760;BME280;3924;48.830;9.262;2023-05-23T07:19:59;98580.44;;;17.93;81.03
7760;BME280;3924;48.830;9.262;2023-05-23T07:22:25;98581.34;;;17.85;81.12
7760;BME280;3924;48.830;9.262;2023-05-23T07:24:52;98587.16;;;17.83;81.19
7760;BME280;3924;48.830;9.262;2023-05-23T07:27:19;98580.63;;;17.75;81.09
7760;BME280;3924;48.830;9.262;2023-05-23T07:29:47;98587.25;;;17.74;81.30
7760;BME280;3924;48.830;9.262;2023-05-23T07:32:14;98587.94;;;17.71;81.12
7760;BME280;3924;48.830;9.262;2023-05-23T07:34:41;98588.94;;;17.67;81.04
7760;BME280;3924;48.830;9.262;2023-05-23T07:37:07;98593.47;;;17.63;81.26
7760;BME280;3924;48.830;9.262;2023-05-23T07:39:34;98585.59;;;17.61;81.14
7760;BME280;3924;48.830;9.262;2023-05-23T07:42:03;98595.91;;;17.64;81.10
7760;BME280;3924;48.830;9.262;2023-05-23T07:44:32;98598.22;;;17.74;80.96
7760;BME280;3924;48.830;9.262;2023-05-23T07:46:58;98595.06;;;17.85;80.62
7760;BME280;3924;48.830;9.262;2023-05-23T07:49:26;98590.06;;;17.99;80.33
7760;BME280;3924;48.830;9.262;2023-05-23T07:51:52;98594.66;;;18.19;79.94
7760;BME280;3924;48.830;9.262;2023-05-23T07:54:19;98598.56;;;18.43;79.40
7760;BME280;3924;48.830;9.262;2023-05-23T07:56:46;98599.00;;;18.57;79.10
7760;BME280;3924;48.830;9.262;2023-05-23T07:59:12;98599.94;;;18.61;79.06
7760;BME280;3924;48.830;9.262;2023-05-23T08:01:39;98600.63;;;18.70;78.64
7760;BME280;3924;48.830;9.262;2023-05-23T08:04:08;98597.19;;;18.73;78.35
7760;BME280;3924;48.830;9.262;2023-05-23T08:06:35;98601.63;;;18.66;78.19
7760;BME280;3924;48.830;9.262;2023-05-23T08:09:06;98610.44;;;18.59;78.45
7760;BME280;3924;48.830;9.262;2023-05-23T08:11:33;98606.22;;;18.62;78.19
7760;BME280;3924;48.830;9.262;2023-05-23T08:14:02;98611.84;;;18.53;78.20
7760;BME280;3924;48.830;9.262;2023-05-23T08:16:29;98610.22;;;18.40;78.14
7760;BME280;3924;48.830;9.262;2023-05-23T08:18:55;98625.44;;;18.37;78.36
7760;BME280;3924;48.830;9.262;2023-05-23T08:21:22;98628.53;;;18.36;78.28
7760;BME280;3924;48.830;9.262;2023-05-23T08:23:49;98619.94;;;18.37;78.32
7760;BME280;3924;48.830;9.262;2023-05-23T08:26:20;98622.22;;;18.35;78.17
7760;BME280;3924;48.830;9.262;2023-05-23T08:28:47;98624.84;;;18.31;78.05
7760;BME280;3924;48.830;9.262;2023-05-23T08:31:14;98637.66;;;18.27;77.91
7760;BME280;3924;48.830;9.262;2023-05-23T08:33:42;98639.97;;;18.25;78.07
7760;BME280;3924;48.830;9.262;2023-05-23T08:36:10;98632.84;;;18.24;77.86
7760;BME280;3924;48.830;9.262;2023-05-23T08:38:36;98647.25;;;18.21;77.76
7760;BME280;3924;48.830;9.262;2023-05-23T08:41:04;98641.06;;;18.24;77.52
7760;BME280;3924;48.830;9.262;2023-05-23T08:43:33;98639.69;;;18.06;77.59
7760;BME280;3924;48.830;9.262;2023-05-23T08:46:02;98647.09;;;17.93;78.12
7760;BME280;3924;48.830;9.262;2023-05-23T08:48:29;98651.09;;;17.96;77.87
7760;BME280;3924;48.830;9.262;2023-05-23T08:50:57;98651.53;;;17.98;77.67
7760;BME280;3924;48.830;9.262;2023-05-23T08:53:25;98652.06;;;18.12;77.51
7760;BME280;3924;48.830;9.262;2023-05-23T08:55:52;98661.44;;;18.23;77.11
7760;BME280;3924;48.830;9.262;2023-05-23T08:58:21;98661.00;;;18.34;77.02
7760;BME280;3924;48.830;9.262;2023-05-23T09:00:51;98655.03;;;18.31;76.69
7760;BME280;3924;48.830;9.262;2023-05-23T09:03:19;98662.78;;;18.17;76.85
7760;BME280;3924;48.830;9.262;2023-05-23T09:05:49;98659.91;;;18.01;77.13
7760;BME280;3924;48.830;9.262;2023-05-23T09:08:15;98656.13;;;17.94;77.16
7760;BME280;3924;48.830;9.262;2023-05-23T09:10:42;98665.94;;;17.95;77.12
7760;BME280;3924;48.830;9.262;2023-05-23T09:13:10;98670.97;;;17.93;77.05
7760;BME280;3924;48.830;9.262;2023-05-23T09:15:55;98675.41;;;17.85;77.07
7760;BME280;3924;48.830;9.262;2023-05-23T09:18:24;98674.13;;;17.83;77.22
7760;BME280;3924;48.830;9.262;2023-05-23T09:20:51;98676.22;;;17.86;76.91
7760;BME280;3924;48.830;9.262;2023-05-23T09:23:18;98670.25;;;17.84;76.91
7760;BME280;3924;48.830;9.262;2023-05-23T09:25:46;98672.66;;;17.85;76.78
7760;BME280;3924;48.830;9.262;2023-05-23T09:28:13;98680.66;;;17.90;76.58
7760;BME280;3924;48.830;9.262;2023-05-23T09:30:40;98677.13;;;17.90;76.49
7760;BME280;3924;48.830;9.262;2023-05-23T09:33:07;98670.50;;;17.91;76.38
7760;BME280;3924;48.830;9.262;2023-05-23T09:35:33;98669.94;;;17.85;76.63
7760;BME280;3924;48.830;9.262;2023-05-23T09:38:00;98677.34;;;17.85;76.47
7760;BME280;3924;48.830;9.262;2023-05-23T09:40:29;98685.28;;;17.98;76.12
7760;BME280;3924;48.830;9.262;2023-05-23T09:43:04;98679.56;;;18.03;75.77
7760;BME280;3924;48.830;9.262;2023-05-23T09:45:32;98677.84;;;17.99;75.50
7760;BME280;3924;48.830;9.262;2023-05-23T09:48:00;98680.25;;;18.00;75.86
7760;BME280;3924;48.830;9.262;2023-05-23T09:50:30;98676.50;;;18.05;75.61
7760;BME280;3924;48.830;9.262;2023-05-23T09:53:00;98677.41;;;18.09;75.28
7760;BME280;3924;48.830;9.262;2023-05-23T09:55:27;98685.19;;;18.07;75.35
7760;BME280;3924;48.830;9.262;2023-05-23T09:57:54;98686.44;;;18.10;75.21
7760;BME280;3924;48.830;9.262;2023-05-23T10:00:24;98687.72;;;18.12;75.01
7760;BME280;3924;48.830;9.262;2023-05-23T10:05:37;98673.09;;;18.20;74.80
7760;BME280;3924;48.830;9.262;2023-05-23T10:08:13;98689.13;;;18.30;74.41
7760;BME280;3924;48.830;9.262;2023-05-23T10:13:27;98676.22;;;18.43;73.94
7760;BME280;3924;48.830;9.262;2023-05-23T10:16:05;98680.47;;;18.53;73.73
7760;BME280;3924;48.830;9.262;2023-05-23T10:18:42;98686.53;;;18.58;73.34
7760;BME280;3924;48.830;9.262;2023-05-23T10:21:24;98687.81;;;18.61;73.21
7760;BME280;3924;48.830;9.262;2023-05-23T10:23:58;98682.09;;;18.54;73.13
7760;BME280;3924;48.830;9.262;2023-05-23T10:26:26;98685.28;;;18.56;73.12
7760;BME280;3924;48.830;9.262;2023-05-23T10:28:54;98682.97;;;18.58;72.96
7760;BME280;3924;48.830;9.262;2023-05-23T10:31:23;98688.47;;;18.58;73.07
7760;BME280;3924;48.830;9.262;2023-05-23T10:34:16;98692.94;;;18.63;72.71
7760;BME280;3924;48.830;9.262;2023-05-23T10:37:05;98695.16;;;18.69;72.51
7760;BME280;3924;48.830;9.262;2023-05-23T10:39:58;98687.81;;;18.61;72.39
7760;BME280;3924;48.830;9.262;2023-05-23T10:42:41;98689.41;;;18.62;72.42
7760;BME280;3924;48.830;9.262;2023-05-23T10:45:22;98687.09;;;18.64;72.18
7760;BME280;3924;48.830;9.262;2023-05-23T10:47:51;98688.97;;;18.72;71.99
7760;BME280;3924;48.830;9.262;2023-05-23T10:50:32;98686.34;;;18.88;71.70
7760;BME280;3924;48.830;9.262;2023-05-23T10:53:01;98689.88;;;19.01;71.32
7760;BME280;3924;48.830;9.262;2023-05-23T10:55:33;98684.84;;;19.15;70.64
7760;BME280;3924;48.830;9.262;2023-05-23T10:58:19;98683.56;;;19.25;70.41
7760;BME280;3924;48.830;9.262;2023-05-23T11:01:04;98686.53;;;19.20;70.46
7760;BME280;3924;48.830;9.262;2023-05-23T11:06:37;98684.13;;;19.18;69.90
7760;BME280;3924;48.830;9.262;2023-05-23T11:09:08;98682.63;;;19.21;69.73
7760;BME280;3924;48.830;9.262;2023-05-23T11:12:04;98692.94;;;19.24;69.60
7760;BME280;3924;48.830;9.262;2023-05-23T11:14:33;98691.38;;;19.10;69.77
7760;BME280;3924;48.830;9.262;2023-05-23T11:17:14;98695.94;;;19.06;69.65
7760;BME280;3924;48.830;9.262;2023-05-23T11:19:58;98693.97;;;19.19;69.40
7760;BME280;3924;48.830;9.262;2023-05-23T11:22:28;98689.63;;;19.18;69.21
7760;BME280;3924;48.830;9.262;2023-05-23T11:24:59;98697.19;;;19.21;69.02
7760;BME280;3924;48.830;9.262;2023-05-23T11:27:44;98699.25;;;19.24;68.73
7760;BME280;3924;48.830;9.262;2023-05-23T11:30:16;98693.16;;;19.31;68.43
7760;BME280;3924;48.830;9.262;2023-05-23T11:32:51;98697.13;;;19.58;67.71
7760;BME280;3924;48.830;9.262;2023-05-23T11:35:21;98692.41;;;19.71;67.35
7760;BME280;3924;48.830;9.262;2023-05-23T11:37:47;98697.03;;;19.82;66.88
7760;BME280;3924;48.830;9.262;2023-05-23T11:42:55;98694.25;;;19.94;65.96
7760;BME280;3924;48.830;9.262;2023-05-23T11:45:22;98692.69;;;19.81;66.04
7760;BME280;3924;48.830;9.262;2023-05-23T11:47:49;98692.84;;;19.73;66.31
7760;BME280;3924;48.830;9.262;2023-05-23T11:50:16;98692.34;;;19.83;66.01
7760;BME280;3924;48.830;9.262;2023-05-23T11:52:43;98700.88;;;20.21;65.23
7760;BME280;3924;48.830;9.262;2023-05-23T11:55:12;98695.84;;;20.39;64.57
7760;BME280;3924;48.830;9.262;2023-05-23T11:57:39;98695.91;;;20.27;64.77
7760;BME280;3924;48.830;9.262;2023-05-23T12:00:09;98698.13;;;20.21;64.76
7760;BME280;3924;48.830;9.262;2023-05-23T12:02:39;98699.16;;;20.17;64.91
7760;BME280;3924;48.830;9.262;2023-05-23T12:05:09;98697.44;;;20.25;64.53
7760;BME280;3924;48.830;9.262;2023-05-23T12:07:43;98693.59;;;20.29;64.41
7760;BME280;3924;48.830;9.262;2023-05-23T12:10:11;98684.19;;;20.30;64.41
7760;BME280;3924;48.830;9.262;2023-05-23T12:12:39;98680.47;;;20.38;64.23
7760;BME280;3924;48.830;9.262;2023-05-23T12:15:08;98682.50;;;20.41;63.89
7760;BME280;3924;48.830;9.262;2023-05-23T12:17:42;98683.75;;;20.28;64.09
7760;BME280;3924;48.830;9.262;2023-05-23T12:20:11;98689.97;;;20.41;63.69
7760;BME280;3924;48.830;9.262;2023-05-23T12:22:37;98672.41;;;20.77;62.75
7760;BME280;3924;48.830;9.262;2023-05-23T12:25:07;98666.81;;;20.73;62.57
7760;BME280;3924;48.830;9.262;2023-05-23T12:27:34;98667.53;;;21.21;61.70
7760;BME280;3924;48.830;9.262;2023-05-23T12:30:13;98672.66;;;21.77;60.39
7760;BME280;3924;48.830;9.262;2023-05-23T12:32:42;98669.25;;;21.45;60.86
7760;BME280;3924;48.830;9.262;2023-05-23T12:35:12;98665.53;;;21.02;61.57
7760;BME280;3924;48.830;9.262;2023-05-23T12:37:40;98667.31;;;20.79;62.06
7760;BME280;3924;48.830;9.262;2023-05-23T12:40:11;98657.19;;;20.83;61.92
7760;BME280;3924;48.830;9.262;2023-05-23T12:42:51;98656.59;;;20.74;62.00
7760;BME280;3924;48.830;9.262;2023-05-23T12:45:21;98666.44;;;20.75;61.69
7760;BME280;3924;48.830;9.262;2023-05-23T12:47:48;98666.09;;;20.76;61.61
7760;BME280;3924;48.830;9.262;2023-05-23T12:50:19;98665.13;;;20.69;61.52
7760;BME280;3924;48.830;9.262;2023-05-23T12:52:46;98659.53;;;20.49;61.68
7760;BME280;3924;48.830;9.262;2023-05-23T12:55:12;98662.28;;;20.49;61.79
7760;BME280;3924;48.830;9.262;2023-05-23T12:57:39;98670.91;;;20.64;61.49
7760;BME280;3924;48.830;9.262;2023-05-23T13:00:06;98664.22;;;20.65;61.50
7760;BME280;3924;48.830;9.262;2023-05-23T13:02:34;98648.72;;;20.92;60.69
7760;BME280;3924;48.830;9.262;2023-05-23T13:05:01;98652.56;;;21.22;59.89
7760;BME280;3924;48.830;9.262;2023-05-23T13:07:27;98652.94;;;21.21;60.03
7760;BME280;3924;48.830;9.262;2023-05-23T13:09:55;98641.59;;;21.26;59.81
7760;BME280;3924;48.830;9.262;2023-05-23T13:12:24;98641.50;;;21.38;59.29
7760;BME280;3924;48.830;9.262;2023-05-23T13:14:50;98644.34;;;21.26;59.71
7760;BME280;3924;48.830;9.262;2023-05-23T13:17:19;98650.13;;;21.01;59.86
7760;BME280;3924;48.830;9.262;2023-05-23T13:19:46;98654.28;;;20.60;60.78
7760;BME280;3924;48.830;9.262;2023-05-23T13:22:15;98649.66;;;20.33;61.28
7760;BME280;3924;48.830;9.262;2023-05-23T13:24:42;98652.78;;;20.03;61.80
7760;BME280;3924;48.830;9.262;2023-05-23T13:27:09;98666.53;;;19.87;62.17
7760;BME280;3924;48.830;9.262;2023-05-23T13:29:36;98663.34;;;19.85;62.21
7760;BME280;3924;48.830;9.262;2023-05-23T13:32:03;98663.53;;;19.92;62.03
7760;BME280;3924;48.830;9.262;2023-05-23T13:34:30;98655.09;;;20.01;61.74
7760;BME280;3924;48.830;9.262;2023-05-23T13:36:56;98662.31;;;20.06;61.54
7760;BME280;3924;48.830;9.262;2023-05-23T13:39:24;98659.75;;;20.13;61.40
7760;BME280;3924;48.830;9.262;2023-05-23T13:41:51;98652.84;;;20.19;61.22
7760;BME280;3924;48.830;9.262;2023-05-23T13:44:18;98658.88;;;20.25;60.87